Time;durP1;ratioP1;P1;durP2;ratioP2;P2;SDS_P1;SDS_P2;PMS_P1;PMS_P2;Temp;Humidity;BMP_temperature;BMP_pressure;BME280_temperature;BME280_humidity;BME280_pressure;Samples;Min_cycle;Max_cycle;Signal;HPM_P1;HPM_P2
2021/05/31 00:02:31;;;;;;;11.98;7.13;;;;;;;;;;5069925;28;20911;-71
2021/05/31 00:04:57;;;;;;;15.45;6.70;;;;;;;;;;5069525;28;20036;-71
2021/05/31 00:07:23;;;;;;;8.80;6.03;;;;;;;;;;5068526;28;20024;-71
2021/05/31 00:09:54;;;;;;;9.25;6.20;;;;;;;;;;5069892;28;20032;-71
2021/05/31 00:12:20;;;;;;;9.73;6.15;;;;;;;;;;5069500;28;20384;-71
2021/05/31 00:14:47;;;;;;;10.57;5.40;;;;;;;;;;5068655;28;20071;-70
2021/05/31 00:17:14;;;;;;;9.77;6.35;;;;;;;;;;5069633;28;20047;-71
2021/05/31 00:19:41;;;;;;;9.88;5.13;;;;;;;;;;5069262;28;20072;-71
2021/05/31 00:22:07;;;;;;;8.98;5.70;;;;;;;;;;5069588;28;20060;-71
2021/05/31 00:24:59;;;;;;;7.65;4.93;;;;;;;;;;5110610;27;20870;-71
2021/05/31 00:27:25;;;;;;;8.35;4.95;;;;;;;;;;5108788;28;20434;-73
2021/05/31 00:29:51;;;;;;;8.15;5.10;;;;;;;;;;5110369;28;20103;-71
2021/05/31 00:32:17;;;;;;;7.97;4.68;;;;;;;;;;5109134;28;20527;-71
2021/05/31 00:37:03;;;;;;;8.02;4.85;;;;;;;;;;5110439;27;20393;-71
2021/05/31 00:40:36;;;;;;;9.85;5.30;;;;;;;;;;5049350;28;20470;-71
2021/05/31 00:43:02;;;;;;;9.60;5.55;;;;;;;;;;5049796;28;20037;-71
2021/05/31 00:47:37;;;;;;;7.40;4.55;;;;;;;;;;5110037;27;20408;-71
2021/05/31 00:51:14;;;;;;;9.38;5.40;;;;;;;;;;5110409;27;20730;-71
2021/05/31 00:53:40;;;;;;;9.02;5.18;;;;;;;;;;5110571;28;20023;-71
2021/05/31 00:57:35;;;;;;;7.78;4.90;;;;;;;;;;5110514;27;20469;-71
2021/05/31 01:01:48;;;;;;;10.27;5.32;;;;;;;;;;5110264;27;20422;-70
2021/05/31 01:04:16;;;;;;;8.02;4.28;;;;;;;;;;5110604;28;20081;-71
2021/05/31 01:06:59;;;;;;;9.57;5.38;;;;;;;;;;5110533;27;20404;-71
2021/05/31 01:09:29;;;;;;;7.32;4.32;;;;;;;;;;5125968;28;20558;-71
2021/05/31 01:12:14;;;;;;;7.60;4.63;;;;;;;;;;5126641;28;20115;-71
2021/05/31 01:15:59;;;;;;;8.32;4.88;;;;;;;;;;5110084;27;20457;-70
2021/05/31 01:20:52;;;;;;;7.80;5.20;;;;;;;;;;5110530;27;20916;-70
2021/05/31 01:27:08;;;;;;;8.63;4.53;;;;;;;;;;5110435;27;20835;-71
2021/05/31 01:30:59;;;;;;;7.05;4.28;;;;;;;;;;5110363;27;20416;-71
2021/05/31 01:33:28;;;;;;;7.28;3.78;;;;;;;;;;5110553;28;20048;-71
2021/05/31 01:35:55;;;;;;;9.25;4.60;;;;;;;;;;5110385;28;20063;-71
2021/05/31 01:39:20;;;;;;;8.35;4.63;;;;;;;;;;5172621;27;20310;-71
2021/05/31 01:41:46;;;;;;;7.22;4.25;;;;;;;;;;5151662;27;20034;-71
2021/05/31 01:46:12;;;;;;;7.53;4.32;;;;;;;;;;5110446;27;20521;-71
2021/05/31 01:49:24;;;;;;;6.95;4.30;;;;;;;;;;5110583;27;20961;-71
2021/05/31 01:51:51;;;;;;;8.02;4.85;;;;;;;;;;5108954;28;20408;-71
2021/05/31 01:57:28;;;;;;;9.93;5.03;;;;;;;;;;5110050;27;20477;-71
2021/05/31 01:59:54;;;;;;;10.15;5.07;;;;;;;;;;5110506;28;20039;-71
2021/05/31 02:02:20;;;;;;;7.13;4.50;;;;;;;;;;5126165;28;20027;-71
2021/05/31 02:04:47;;;;;;;9.18;5.18;;;;;;;;;;5109967;28;20099;-71
2021/05/31 02:09:01;;;;;;;9.50;5.65;;;;;;;;;;5069594;28;20412;-71
2021/05/31 02:11:36;;;;;;;10.73;5.65;;;;;;;;;;5051660;28;20052;-70
2021/05/31 02:14:03;;;;;;;10.73;6.18;;;;;;;;;;5069863;28;20459;-71
2021/05/31 02:18:14;;;;;;;8.10;5.45;;;;;;;;;;5110498;27;20465;-71
2021/05/31 02:22:05;;;;;;;8.20;5.15;;;;;;;;;;5110426;27;20924;-71
2021/05/31 02:25:57;;;;;;;9.15;5.32;;;;;;;;;;5110187;27;20388;-71
2021/05/31 02:30:07;;;;;;;9.40;6.03;;;;;;;;;;5131209;27;20312;-71
2021/05/31 02:32:33;;;;;;;9.05;5.50;;;;;;;;;;5091932;28;20027;-71
2021/05/31 02:34:59;;;;;;;7.93;5.07;;;;;;;;;;5110378;28;20020;-71
2021/05/31 02:37:30;;;;;;;8.93;5.20;;;;;;;;;;5110326;28;20027;-71
2021/05/31 02:39:56;;;;;;;11.70;5.90;;;;;;;;;;5110010;28;20020;-71
2021/05/31 02:42:22;;;;;;;8.82;4.85;;;;;;;;;;5091837;28;20102;-71
2021/05/31 02:44:48;;;;;;;8.13;4.78;;;;;;;;;;5091801;28;20066;-71
2021/05/31 02:47:15;;;;;;;7.97;5.15;;;;;;;;;;5109716;28;20031;-71
2021/05/31 02:49:41;;;;;;;10.30;5.28;;;;;;;;;;5110185;28;20505;-71
2021/05/31 02:52:07;;;;;;;9.85;5.47;;;;;;;;;;5110092;28;20150;-71
2021/05/31 02:56:46;;;;;;;8.20;4.85;;;;;;;;;;5110506;27;20470;-71
2021/05/31 02:59:13;;;;;;;7.70;4.93;;;;;;;;;;5110558;28;20032;-71
2021/05/31 03:04:51;;;;;;;8.90;4.78;;;;;;;;;;5151569;27;20367;-71
2021/05/31 03:07:17;;;;;;;8.60;5.32;;;;;;;;;;5131129;28;20058;-71
2021/05/31 03:09:43;;;;;;;10.32;5.25;;;;;;;;;;5130647;28;20471;-71
2021/05/31 03:12:11;;;;;;;9.85;6.15;;;;;;;;;;5130881;28;20391;-71
2021/05/31 03:14:37;;;;;;;9.38;6.28;;;;;;;;;;5112003;28;20111;-71
2021/05/31 03:20:07;;;;;;;8.48;5.78;;;;;;;;;;5110405;27;20388;-71
2021/05/31 03:22:33;;;;;;;8.25;4.93;;;;;;;;;;5108737;28;20081;-71
2021/05/31 03:24:59;;;;;;;9.88;5.57;;;;;;;;;;5110475;28;20477;-71
2021/05/31 03:27:26;;;;;;;8.18;4.95;;;;;;;;;;5110520;28;20028;-71
2021/05/31 03:30:57;;;;;;;11.32;5.78;;;;;;;;;;5110005;27;20408;-71
2021/05/31 03:33:51;;;;;;;8.75;4.85;;;;;;;;;;5110431;27;20408;-71
2021/05/31 03:36:17;;;;;;;8.40;4.95;;;;;;;;;;5110146;28;20040;-72
2021/05/31 03:39:54;;;;;;;7.70;4.60;;;;;;;;;;5069833;28;20334;-71
2021/05/31 03:44:32;;;;;;;10.57;5.05;;;;;;;;;;5069675;28;20460;-71
2021/05/31 03:46:58;;;;;;;8.30;5.20;;;;;;;;;;5070082;28;20035;-71
2021/05/31 03:49:24;;;;;;;10.00;4.95;;;;;;;;;;5070141;28;20045;-71
2021/05/31 03:53:41;;;;;;;10.98;5.05;;;;;;;;;;5110434;27;20404;-71
2021/05/31 03:56:08;;;;;;;7.60;4.80;;;;;;;;;;5109098;28;20032;-72
2021/05/31 03:58:34;;;;;;;8.77;5.00;;;;;;;;;;5110028;28;20045;-71
2021/05/31 04:02:53;;;;;;;9.82;5.00;;;;;;;;;;5110846;27;20388;-71
2021/05/31 04:05:20;;;;;;;7.20;4.53;;;;;;;;;;5111027;28;20035;-71
2021/05/31 04:15:26;;;;;;;7.05;4.05;;;;;;;;;;5110533;27;20444;-71
2021/05/31 04:21:27;;;;;;;8.63;4.45;;;;;;;;;;5110480;27;20461;-71
2021/05/31 04:23:53;;;;;;;10.98;4.10;;;;;;;;;;5110573;28;20031;-72
2021/05/31 04:27:00;;;;;;;9.32;3.90;;;;;;;;;;5110333;27;20400;-71
2021/05/31 04:29:26;;;;;;;6.25;3.83;;;;;;;;;;5109322;28;20028;-71
2021/05/31 04:31:52;;;;;;;6.85;3.88;;;;;;;;;;5110000;28;20050;-71
2021/05/31 04:34:18;;;;;;;9.23;4.47;;;;;;;;;;5109053;28;20498;-71
2021/05/31 04:36:44;;;;;;;7.00;3.65;;;;;;;;;;5110348;28;20353;-72
2021/05/31 04:39:11;;;;;;;7.25;3.80;;;;;;;;;;5108540;28;20110;-71
2021/05/31 04:41:37;;;;;;;7.18;2.85;;;;;;;;;;5110209;28;20440;-71
2021/05/31 04:44:04;;;;;;;5.75;3.55;;;;;;;;;;5108884;28;20019;-71
2021/05/31 04:46:31;;;;;;;6.65;3.60;;;;;;;;;;5108547;28;20047;-71
2021/05/31 04:49:00;;;;;;;5.47;3.50;;;;;;;;;;5110262;28;20504;-71
2021/05/31 04:51:26;;;;;;;6.78;3.42;;;;;;;;;;5108705;28;20048;-71
2021/05/31 04:53:54;;;;;;;4.43;2.80;;;;;;;;;;5108197;28;20031;-71
2021/05/31 04:56:20;;;;;;;7.75;3.45;;;;;;;;;;5109922;28;20031;-71
2021/05/31 04:58:46;;;;;;;5.43;3.08;;;;;;;;;;5110012;28;20506;-68
2021/05/31 05:02:32;;;;;;;4.32;2.80;;;;;;;;;;5110309;27;20673;-68
2021/05/31 05:04:58;;;;;;;6.68;3.60;;;;;;;;;;5110501;28;20098;-68
2021/05/31 05:07:24;;;;;;;6.05;3.20;;;;;;;;;;5110209;28;20465;-70
2021/05/31 05:11:32;;;;;;;7.68;3.83;;;;;;;;;;5110483;27;20158;-70
2021/05/31 05:13:58;;;;;;;6.20;3.08;;;;;;;;;;5109379;28;20035;-71
2021/05/31 05:16:24;;;;;;;7.25;3.50;;;;;;;;;;5108959;28;20031;-73
2021/05/31 05:22:04;;;;;;;6.55;3.60;;;;;;;;;;5109949;27;20389;-70
2021/05/31 05:24:30;;;;;;;7.60;3.70;;;;;;;;;;5128938;28;20107;-70
2021/05/31 05:26:56;;;;;;;6.00;3.30;;;;;;;;;;5130969;28;20020;-72
2021/05/31 05:29:22;;;;;;;8.20;3.30;;;;;;;;;;5130160;28;20422;-71
2021/05/31 05:31:49;;;;;;;8.25;3.50;;;;;;;;;;5129898;28;20077;-70
2021/05/31 05:34:15;;;;;;;5.90;3.35;;;;;;;;;;5130519;28;20096;-70
2021/05/31 05:37:21;;;;;;;5.53;3.22;;;;;;;;;;5109922;27;20473;-71
2021/05/31 05:40:19;;;;;;;5.38;3.03;;;;;;;;;;5110535;28;20032;-72
2021/05/31 05:43:09;;;;;;;5.03;3.08;;;;;;;;;;5109844;28;20085;-72
2021/05/31 05:48:21;;;;;;;9.65;3.13;;;;;;;;;;5110263;28;20513;-72
2021/05/31 05:51:08;;;;;;;5.25;3.13;;;;;;;;;;5109946;27;20412;-71
2021/05/31 05:53:42;;;;;;;6.85;3.28;;;;;;;;;;5101399;28;20027;-72
2021/05/31 05:56:10;;;;;;;7.00;3.97;;;;;;;;;;5108304;28;20081;-74
2021/05/31 05:58:37;;;;;;;4.88;3.35;;;;;;;;;;5110647;28;20020;-75
2021/05/31 06:01:30;;;;;;;6.55;3.30;;;;;;;;;;5110438;27;20466;-74
2021/05/31 06:04:34;;;;;;;6.47;3.60;;;;;;;;;;5110271;27;20442;-72
2021/05/31 06:09:05;;;;;;;6.75;3.30;;;;;;;;;;5110274;27;20487;-72
2021/05/31 06:13:29;;;;;;;5.55;2.78;;;;;;;;;;5130494;27;20319;-75
2021/05/31 06:15:59;;;;;;;6.05;3.03;;;;;;;;;;5092178;28;20035;-75
2021/05/31 06:18:26;;;;;;;6.47;2.35;;;;;;;;;;5109904;28;20023;-75
2021/05/31 06:22:21;;;;;;;5.97;2.80;;;;;;;;;;5069468;28;20409;-74
2021/05/31 06:24:47;;;;;;;4.65;2.67;;;;;;;;;;5065856;28;20032;-75
2021/05/31 06:27:14;;;;;;;6.40;3.30;;;;;;;;;;5063818;28;20060;-76
2021/05/31 06:29:40;;;;;;;4.60;3.05;;;;;;;;;;5069272;28;20071;-75
2021/05/31 06:33:21;;;;;;;6.45;3.25;;;;;;;;;;5109767;27;20405;-73
2021/05/31 06:36:58;;;;;;;5.72;3.03;;;;;;;;;;5069623;28;20387;-74
2021/05/31 06:39:25;;;;;;;6.25;3.05;;;;;;;;;;5068210;28;20031;-75
2021/05/31 06:41:52;;;;;;;4.35;2.67;;;;;;;;;;5068715;28;20025;-74
2021/05/31 06:46:08;;;;;;;5.88;3.47;;;;;;;;;;5069351;28;20949;-74
2021/05/31 06:48:34;;;;;;;6.03;3.05;;;;;;;;;;5069362;28;20028;-74
2021/05/31 06:51:32;;;;;;;5.50;3.00;;;;;;;;;;5109358;27;20419;-76
2021/05/31 06:53:58;;;;;;;6.80;3.13;;;;;;;;;;5124707;28;20023;-74
2021/05/31 06:56:24;;;;;;;7.55;3.15;;;;;;;;;;5126182;28;20044;-77
2021/05/31 07:00:36;;;;;;;4.78;2.50;;;;;;;;;;5069520;28;20391;-74
2021/05/31 07:03:02;;;;;;;5.78;3.38;;;;;;;;;;5069321;28;20538;-76
2021/05/31 07:05:29;;;;;;;6.70;2.92;;;;;;;;;;5068737;28;20082;-73
2021/05/31 07:09:52;;;;;;;7.38;3.13;;;;;;;;;;5109692;27;20410;-73
2021/05/31 07:12:18;;;;;;;5.63;2.75;;;;;;;;;;5126290;28;20028;-74
2021/05/31 07:15:33;;;;;;;5.03;2.55;;;;;;;;;;5103118;27;20113;-71
2021/05/31 07:17:59;;;;;;;5.78;2.72;;;;;;;;;;5107316;28;20507;-77
2021/05/31 07:20:48;;;;;;;10.90;3.40;;;;;;;;;;5109040;27;20863;-72
2021/05/31 07:23:15;;;;;;;7.55;2.90;;;;;;;;;;5108774;28;20548;-75
2021/05/31 07:25:55;;;;;;;5.05;2.60;;;;;;;;;;5110239;27;20882;-77
2021/05/31 07:28:21;;;;;;;4.95;2.63;;;;;;;;;;5109073;28;20030;-79
2021/05/31 07:30:47;;;;;;;4.13;3.08;;;;;;;;;;5125986;28;20091;-80
2021/05/31 07:33:14;;;;;;;4.78;2.78;;;;;;;;;;5110611;28;20012;-78
2021/05/31 07:36:45;;;;;;;6.18;2.83;;;;;;;;;;5112101;27;20385;-79
2021/05/31 07:39:11;;;;;;;11.45;3.03;;;;;;;;;;5110571;28;20028;-76
2021/05/31 07:41:38;;;;;;;5.80;3.13;;;;;;;;;;5110674;28;20026;-72
2021/05/31 07:44:04;;;;;;;6.03;3.00;;;;;;;;;;5110093;28;20538;-76
2021/05/31 07:48:31;;;;;;;4.25;2.70;;;;;;;;;;5108617;27;20411;-75
2021/05/31 07:51:15;;;;;;;5.80;3.25;;;;;;;;;;5108849;28;20028;-74
2021/05/31 07:53:41;;;;;;;5.13;2.75;;;;;;;;;;5109253;28;20027;-74
2021/05/31 07:57:04;;;;;;;4.70;2.60;;;;;;;;;;5107395;27;20473;-75
2021/05/31 07:59:31;;;;;;;4.72;2.78;;;;;;;;;;5108873;28;20043;-73
2021/05/31 08:01:57;;;;;;;5.07;2.47;;;;;;;;;;5109087;28;20016;-74
2021/05/31 08:07:15;;;;;;;4.10;2.63;;;;;;;;;;5109773;27;20397;-72
2021/05/31 08:10:18;;;;;;;6.40;3.45;;;;;;;;;;5108436;27;20529;-72
2021/05/31 08:16:33;;;;;;;4.18;3.03;;;;;;;;;;5069674;28;20477;-73
2021/05/31 08:18:59;;;;;;;5.18;2.85;;;;;;;;;;5069398;28;20036;-72
2021/05/31 08:21:26;;;;;;;5.75;3.22;;;;;;;;;;5069576;28;20013;-72
2021/05/31 08:23:52;;;;;;;6.13;3.05;;;;;;;;;;5069634;28;20032;-72
2021/05/31 08:26:20;;;;;;;4.47;2.85;;;;;;;;;;5068559;28;20031;-73
2021/05/31 08:28:47;;;;;;;4.95;3.00;;;;;;;;;;5067751;28;20016;-73
2021/05/31 08:31:13;;;;;;;6.40;3.10;;;;;;;;;;5067392;28;20032;-72
2021/05/31 08:36:34;;;;;;;4.78;2.70;;;;;;;;;;5110374;27;20393;-71
2021/05/31 08:39:00;;;;;;;6.30;3.17;;;;;;;;;;5109930;28;20425;-72
2021/05/31 08:42:50;;;;;;;3.88;2.55;;;;;;;;;;5110182;27;21021;-76
2021/05/31 08:45:17;;;;;;;3.45;2.25;;;;;;;;;;5110048;28;20024;-72
2021/05/31 08:47:45;;;;;;;3.58;1.95;;;;;;;;;;5108461;28;20030;-73
2021/05/31 08:50:12;;;;;;;4.82;2.35;;;;;;;;;;5106889;28;20051;-73
2021/05/31 08:52:38;;;;;;;4.05;2.47;;;;;;;;;;5109902;28;20399;-74
2021/05/31 08:55:06;;;;;;;3.47;2.25;;;;;;;;;;5108309;28;20020;-73
2021/05/31 08:58:25;;;;;;;4.13;2.45;;;;;;;;;;5109808;27;20416;-75
2021/05/31 09:00:51;;;;;;;4.40;1.90;;;;;;;;;;5109984;28;20036;-72
2021/05/31 09:03:18;;;;;;;3.85;2.47;;;;;;;;;;5110369;28;20024;-72
2021/05/31 09:05:45;;;;;;;3.97;2.45;;;;;;;;;;5109776;28;20051;-74
2021/05/31 09:08:55;;;;;;;4.70;3.00;;;;;;;;;;5049832;27;20487;-76
2021/05/31 09:11:23;;;;;;;4.07;2.40;;;;;;;;;;5045517;28;20036;-76
2021/05/31 09:13:49;;;;;;;3.72;2.08;;;;;;;;;;5049610;28;20075;-76
2021/05/31 09:16:43;;;;;;;4.15;2.85;;;;;;;;;;5030223;28;20927;-73
2021/05/31 09:19:10;;;;;;;3.67;2.33;;;;;;;;;;5030220;28;20030;-75
2021/05/31 09:21:38;;;;;;;2.97;1.90;;;;;;;;;;5029778;28;20026;-73
2021/05/31 09:24:09;;;;;;;4.05;2.22;;;;;;;;;;5030690;28;20069;-74
2021/05/31 09:26:44;;;;;;;3.67;2.30;;;;;;;;;;5030078;28;20049;-76
2021/05/31 09:31:25;;;;;;;2.85;1.70;;;;;;;;;;5110888;27;20412;-76
2021/05/31 09:34:01;;;;;;;2.33;1.50;;;;;;;;;;5110918;28;20472;-77
2021/05/31 09:36:28;;;;;;;5.20;2.00;;;;;;;;;;5110239;28;20091;-79
2021/05/31 09:38:54;;;;;;;2.80;1.40;;;;;;;;;;5110900;28;20107;-71
2021/05/31 09:41:28;;;;;;;5.38;1.77;;;;;;;;;;5110479;28;20073;-74
2021/05/31 09:43:59;;;;;;;2.83;1.70;;;;;;;;;;5110191;28;20027;-74
2021/05/31 09:46:45;;;;;;;2.38;1.50;;;;;;;;;;5110410;28;20480;-76
2021/05/31 09:49:12;;;;;;;3.50;2.03;;;;;;;;;;5109748;28;20055;-77
2021/05/31 09:51:50;;;;;;;2.67;1.25;;;;;;;;;;5110394;28;20046;-76
2021/05/31 09:54:28;;;;;;;3.15;1.23;;;;;;;;;;5103785;28;20024;-74
2021/05/31 09:56:55;;;;;;;2.40;1.40;;;;;;;;;;5109458;28;20438;-76
2021/05/31 10:00:54;;;;;;;2.33;1.17;;;;;;;;;;5110119;27;20409;-71
2021/05/31 10:06:08;;;;;;;4.13;1.80;;;;;;;;;;5109355;28;20418;-72
2021/05/31 10:11:02;;;;;;;2.42;1.42;;;;;;;;;;5108927;28;20052;-72
2021/05/31 10:13:29;;;;;;;5.22;2.15;;;;;;;;;;5095403;28;20035;-71
2021/05/31 10:15:56;;;;;;;3.33;1.50;;;;;;;;;;5089493;28;20090;-72
2021/05/31 10:18:23;;;;;;;3.55;1.85;;;;;;;;;;5087756;28;20081;-70
2021/05/31 10:21:15;;;;;;;2.33;1.58;;;;;;;;;;5109538;27;20508;-70
2021/05/31 10:23:41;;;;;;;5.70;1.90;;;;;;;;;;5108575;28;20057;-74
2021/05/31 10:26:11;;;;;;;3.65;1.70;;;;;;;;;;5109315;28;20031;-76
2021/05/31 10:29:13;;;;;;;4.38;2.00;;;;;;;;;;5130886;27;20313;-77
2021/05/31 10:32:07;;;;;;;3.05;1.80;;;;;;;;;;5110261;27;20443;-76
2021/05/31 10:34:43;;;;;;;2.38;1.45;;;;;;;;;;5110413;28;20024;-76
2021/05/31 10:37:16;;;;;;;5.25;1.95;;;;;;;;;;5110581;28;20031;-78
2021/05/31 10:39:43;;;;;;;5.45;3.20;;;;;;;;;;5109538;28;20066;-74
2021/05/31 10:42:10;;;;;;;3.95;1.83;;;;;;;;;;5110088;28;20028;-76
2021/05/31 10:44:36;;;;;;;3.03;1.67;;;;;;;;;;5108662;28;20040;-75
2021/05/31 10:47:13;;;;;;;3.20;1.80;;;;;;;;;;5108608;28;20030;-79
2021/05/31 10:49:39;;;;;;;4.68;1.55;;;;;;;;;;5109626;28;20023;-75
2021/05/31 10:52:50;;;;;;;3.75;1.98;;;;;;;;;;5110105;27;20517;-71
2021/05/31 10:55:17;;;;;;;2.47;1.30;;;;;;;;;;5108756;28;20032;-76
2021/05/31 11:00:53;;;;;;;2.45;1.48;;;;;;;;;;5110129;27;20524;-72
2021/05/31 11:03:19;;;;;;;3.50;1.60;;;;;;;;;;5110172;28;20074;-73
2021/05/31 11:05:46;;;;;;;2.83;1.70;;;;;;;;;;5108448;28;20361;-73
2021/05/31 11:08:12;;;;;;;1.83;1.38;;;;;;;;;;5109330;28;20416;-74
2021/05/31 11:10:38;;;;;;;2.92;1.40;;;;;;;;;;5108648;28;20133;-74
2021/05/31 11:13:11;;;;;;;4.70;1.52;;;;;;;;;;5109725;28;20495;-69
2021/05/31 11:15:38;;;;;;;3.20;1.60;;;;;;;;;;5109949;28;20077;-69
2021/05/31 11:18:04;;;;;;;3.65;1.77;;;;;;;;;;5109900;28;20562;-70
2021/05/31 11:20:32;;;;;;;5.35;1.83;;;;;;;;;;5108058;28;20388;-69
2021/05/31 11:23:00;;;;;;;2.63;1.50;;;;;;;;;;5108747;28;20016;-70
2021/05/31 11:25:27;;;;;;;1.90;1.42;;;;;;;;;;5108636;28;20053;-70
2021/05/31 11:27:55;;;;;;;1.75;1.40;;;;;;;;;;5109341;28;20024;-70
2021/05/31 11:30:24;;;;;;;2.53;1.90;;;;;;;;;;5109804;28;20065;-70
2021/05/31 11:32:58;;;;;;;2.40;1.40;;;;;;;;;;5108102;28;20020;-70
2021/05/31 11:35:25;;;;;;;1.90;1.38;;;;;;;;;;5108847;28;20049;-73
2021/05/31 11:37:51;;;;;;;1.35;1.15;;;;;;;;;;5108872;28;20403;-73
2021/05/31 11:40:25;;;;;;;2.53;1.25;;;;;;;;;;5108195;28;20484;-73
2021/05/31 11:45:02;;;;;;;1.75;1.13;;;;;;;;;;5068573;28;20411;-73
2021/05/31 11:47:29;;;;;;;3.72;1.48;;;;;;;;;;5067178;28;20029;-73
2021/05/31 11:49:56;;;;;;;1.85;1.58;;;;;;;;;;5067233;28;20025;-75
2021/05/31 11:52:26;;;;;;;1.58;1.08;;;;;;;;;;5068538;28;20025;-72
2021/05/31 11:54:53;;;;;;;2.10;1.20;;;;;;;;;;5068106;28;20469;-72
2021/05/31 11:57:25;;;;;;;2.40;1.45;;;;;;;;;;5068069;28;20031;-72
2021/05/31 11:59:52;;;;;;;1.77;1.10;;;;;;;;;;5069595;28;20024;-72
2021/05/31 12:02:23;;;;;;;2.72;1.30;;;;;;;;;;5069505;28;20051;-72
2021/05/31 12:04:50;;;;;;;1.67;1.10;;;;;;;;;;5064393;28;20067;-71
2021/05/31 12:07:19;;;;;;;1.60;1.10;;;;;;;;;;5065300;28;20035;-72
2021/05/31 12:09:45;;;;;;;1.10;1.00;;;;;;;;;;5068579;28;20362;-71
2021/05/31 12:12:15;;;;;;;3.60;1.40;;;;;;;;;;5067281;28;20504;-72
2021/05/31 12:14:49;;;;;;;2.35;1.42;;;;;;;;;;5068589;28;20025;-72
2021/05/31 12:17:16;;;;;;;2.05;1.23;;;;;;;;;;5066995;28;20036;-71
2021/05/31 12:19:43;;;;;;;3.22;1.73;;;;;;;;;;5066619;28;20126;-71
2021/05/31 12:22:10;;;;;;;3.20;1.17;;;;;;;;;;5064262;28;20024;-72
2021/05/31 12:24:44;;;;;;;2.55;1.63;;;;;;;;;;5062111;28;20047;-71
2021/05/31 12:27:10;;;;;;;3.17;1.60;;;;;;;;;;5062174;28;20119;-73
2021/05/31 12:29:46;;;;;;;2.88;1.60;;;;;;;;;;5066978;28;20024;-73
2021/05/31 12:32:14;;;;;;;2.40;1.38;;;;;;;;;;5066410;28;20361;-73
2021/05/31 12:34:41;;;;;;;4.10;1.10;;;;;;;;;;5067546;28;20028;-72
2021/05/31 12:37:09;;;;;;;2.28;1.33;;;;;;;;;;5068637;28;20017;-73
2021/05/31 12:39:36;;;;;;;3.72;1.15;;;;;;;;;;5066672;28;20017;-72
2021/05/31 12:42:03;;;;;;;5.20;1.65;;;;;;;;;;5067180;28;20023;-72
2021/05/31 12:44:29;;;;;;;2.65;1.45;;;;;;;;;;5067519;28;20092;-71
2021/05/31 12:47:06;;;;;;;1.98;1.10;;;;;;;;;;5066712;28;20021;-74
2021/05/31 12:49:33;;;;;;;4.18;1.17;;;;;;;;;;5067758;28;20100;-72
2021/05/31 12:51:59;;;;;;;4.20;1.45;;;;;;;;;;5067535;28;20029;-70
2021/05/31 12:54:25;;;;;;;2.03;1.33;;;;;;;;;;5065368;28;20107;-72
2021/05/31 12:56:52;;;;;;;1.70;1.40;;;;;;;;;;5054822;28;20029;-72
2021/05/31 12:59:24;;;;;;;4.25;1.48;;;;;;;;;;5053481;28;20017;-72
2021/05/31 13:01:50;;;;;;;3.65;1.40;;;;;;;;;;5055020;28;20390;-72
2021/05/31 13:04:24;;;;;;;2.65;1.55;;;;;;;;;;5054023;28;20025;-72
2021/05/31 13:06:50;;;;;;;4.68;1.75;;;;;;;;;;5054717;28;20028;-72
2021/05/31 13:09:25;;;;;;;2.53;1.27;;;;;;;;;;5053832;28;20539;-72
2021/05/31 13:11:52;;;;;;;2.17;1.23;;;;;;;;;;5053666;28;20397;-73
2021/05/31 13:14:19;;;;;;;1.92;1.30;;;;;;;;;;5053456;28;20024;-72
2021/05/31 13:16:54;;;;;;;2.72;1.50;;;;;;;;;;5054315;28;20476;-71
2021/05/31 13:19:22;;;;;;;1.42;1.20;;;;;;;;;;5054840;28;20486;-72
2021/05/31 13:21:55;;;;;;;2.08;1.38;;;;;;;;;;5054511;28;20063;-70
2021/05/31 13:24:28;;;;;;;3.65;1.33;;;;;;;;;;5054924;28;20372;-70
2021/05/31 13:26:55;;;;;;;2.88;1.65;;;;;;;;;;5054365;28;20500;-70
2021/05/31 13:29:24;;;;;;;2.95;1.60;;;;;;;;;;5053447;28;20401;-71
2021/05/31 13:31:51;;;;;;;2.65;1.30;;;;;;;;;;5053330;28;20024;-70
2021/05/31 13:34:17;;;;;;;2.97;1.73;;;;;;;;;;5054210;28;20420;-72
2021/05/31 13:36:44;;;;;;;3.20;1.92;;;;;;;;;;5054546;28;20032;-72
2021/05/31 13:39:16;;;;;;;2.75;1.80;;;;;;;;;;5054458;28;20080;-71
2021/05/31 13:41:50;;;;;;;2.17;1.50;;;;;;;;;;5054209;28;20477;-70
2021/05/31 13:44:17;;;;;;;2.33;1.85;;;;;;;;;;5053223;28;20052;-71
2021/05/31 13:46:43;;;;;;;2.83;1.60;;;;;;;;;;5054525;28;20484;-70
2021/05/31 13:49:15;;;;;;;3.35;1.80;;;;;;;;;;5054055;28;20079;-72
2021/05/31 13:51:45;;;;;;;3.20;1.88;;;;;;;;;;5053095;28;20063;-72
2021/05/31 13:54:11;;;;;;;3.25;1.70;;;;;;;;;;5052949;28;20028;-72
2021/05/31 13:56:38;;;;;;;2.63;1.50;;;;;;;;;;5053967;28;20470;-72
2021/05/31 13:59:05;;;;;;;2.33;1.23;;;;;;;;;;5054290;28;20059;-71
2021/05/31 14:01:32;;;;;;;3.20;1.38;;;;;;;;;;5052793;28;20025;-72
2021/05/31 14:03:59;;;;;;;1.98;1.23;;;;;;;;;;5053756;28;20033;-72
2021/05/31 14:06:26;;;;;;;4.90;1.65;;;;;;;;;;5053035;28;20036;-71
2021/05/31 14:08:54;;;;;;;2.85;1.90;;;;;;;;;;5053653;28;20033;-71
2021/05/31 14:11:20;;;;;;;3.33;2.45;;;;;;;;;;5054297;28;20025;-70
2021/05/31 14:13:46;;;;;;;4.50;2.58;;;;;;;;;;5053856;28;20017;-71
2021/05/31 14:16:12;;;;;;;3.70;2.20;;;;;;;;;;5052071;28;20393;-71
2021/05/31 14:18:41;;;;;;;3.55;2.05;;;;;;;;;;5053812;28;20070;-70
2021/05/31 14:21:07;;;;;;;3.47;2.10;;;;;;;;;;5052393;28;20508;-71
2021/05/31 14:25:07;;;;;;;5.40;2.70;;;;;;;;;;5110306;27;20385;-72
2021/05/31 14:27:34;;;;;;;4.07;2.58;;;;;;;;;;5109163;28;20027;-69
2021/05/31 14:30:01;;;;;;;5.47;2.63;;;;;;;;;;5108670;28;20020;-73
2021/05/31 14:32:28;;;;;;;4.22;1.90;;;;;;;;;;5110547;28;20047;-70
2021/05/31 14:34:54;;;;;;;2.63;1.83;;;;;;;;;;5108955;28;20432;-70
2021/05/31 14:37:20;;;;;;;3.83;2.10;;;;;;;;;;5109980;28;20028;-72
2021/05/31 14:39:46;;;;;;;3.95;2.25;;;;;;;;;;5108790;28;20085;-71
2021/05/31 14:42:13;;;;;;;4.45;2.40;;;;;;;;;;5110090;28;20028;-71
2021/05/31 14:45:40;;;;;;;5.50;3.30;;;;;;;;;;5130592;27;20495;-70
2021/05/31 14:48:06;;;;;;;2.67;1.70;;;;;;;;;;5110251;28;20503;-71
2021/05/31 14:50:33;;;;;;;2.30;1.65;;;;;;;;;;5092068;28;20020;-71
2021/05/31 14:52:59;;;;;;;1.77;1.45;;;;;;;;;;5091655;28;20111;-72
2021/05/31 14:55:25;;;;;;;4.22;2.20;;;;;;;;;;5110114;28;20065;-72
2021/05/31 14:57:52;;;;;;;2.55;1.50;;;;;;;;;;5110292;28;20016;-72
2021/05/31 15:00:20;;;;;;;2.47;1.45;;;;;;;;;;5109840;28;20031;-70
2021/05/31 15:02:46;;;;;;;2.10;1.48;;;;;;;;;;5110352;28;20027;-71
2021/05/31 15:06:54;;;;;;;3.75;1.63;;;;;;;;;;5110043;27;20634;-70
2021/05/31 15:09:20;;;;;;;1.85;1.33;;;;;;;;;;5110434;28;20035;-71
2021/05/31 15:11:46;;;;;;;4.22;1.50;;;;;;;;;;5110378;28;20071;-71
2021/05/31 15:14:12;;;;;;;6.07;2.95;;;;;;;;;;5110034;28;20098;-70
2021/05/31 15:16:39;;;;;;;10.77;5.55;;;;;;;;;;5110246;28;20024;-70
2021/05/31 15:19:05;;;;;;;9.38;4.03;;;;;;;;;;5108529;28;20105;-71
2021/05/31 15:21:31;;;;;;;8.45;4.10;;;;;;;;;;5110283;28;20050;-70
2021/05/31 15:23:58;;;;;;;10.48;2.80;;;;;;;;;;5108890;28;20023;-72
2021/05/31 15:26:24;;;;;;;6.22;2.72;;;;;;;;;;5108509;28;20061;-71
2021/05/31 15:28:50;;;;;;;8.85;4.07;;;;;;;;;;5109923;28;20019;-72
2021/05/31 15:31:17;;;;;;;3.67;2.20;;;;;;;;;;5110195;28;20073;-71
2021/05/31 15:33:44;;;;;;;5.60;2.38;;;;;;;;;;5109567;28;20022;-72
2021/05/31 15:36:11;;;;;;;4.30;2.40;;;;;;;;;;5108661;28;20028;-72
2021/05/31 15:38:37;;;;;;;5.13;2.28;;;;;;;;;;5109965;28;20024;-72
2021/05/31 15:41:04;;;;;;;5.45;2.60;;;;;;;;;;5109406;28;20042;-71
2021/05/31 15:43:30;;;;;;;3.75;1.90;;;;;;;;;;5109852;28;20027;-71
2021/05/31 15:45:58;;;;;;;2.40;1.42;;;;;;;;;;5109840;28;20032;-72
2021/05/31 15:48:24;;;;;;;3.88;2.00;;;;;;;;;;5108111;28;20020;-72
2021/05/31 15:50:51;;;;;;;2.08;1.65;;;;;;;;;;5109672;28;20079;-73
2021/05/31 15:53:18;;;;;;;8.85;4.50;;;;;;;;;;5109676;28;20020;-73
2021/05/31 15:55:44;;;;;;;5.78;2.40;;;;;;;;;;5107951;28;20464;-73
2021/05/31 15:58:14;;;;;;;3.22;2.00;;;;;;;;;;5109439;28;20099;-73
2021/05/31 16:00:45;;;;;;;5.18;2.60;;;;;;;;;;5109452;28;20027;-74
2021/05/31 16:03:56;;;;;;;3.22;2.20;;;;;;;;;;5151649;27;20372;-72
2021/05/31 16:06:22;;;;;;;6.18;2.50;;;;;;;;;;5131023;28;20529;-72
2021/05/31 16:08:48;;;;;;;4.68;2.97;;;;;;;;;;5111999;28;20031;-72
2021/05/31 16:11:15;;;;;;;4.30;2.55;;;;;;;;;;5112450;28;20685;-72
2021/05/31 16:13:41;;;;;;;4.53;2.30;;;;;;;;;;5130735;28;20028;-70
2021/05/31 16:16:10;;;;;;;2.60;1.88;;;;;;;;;;5130495;28;20027;-71
2021/05/31 16:18:37;;;;;;;4.82;2.47;;;;;;;;;;5130659;28;20098;-72
2021/05/31 16:22:43;;;;;;;4.78;2.22;;;;;;;;;;5110190;27;20517;-70
2021/05/31 16:25:20;;;;;;;6.82;2.47;;;;;;;;;;5110655;28;20024;-71
2021/05/31 16:27:47;;;;;;;3.90;2.30;;;;;;;;;;5110452;28;20024;-71
2021/05/31 16:30:13;;;;;;;6.05;2.85;;;;;;;;;;5109976;28;20031;-70
2021/05/31 16:32:39;;;;;;;4.97;2.65;;;;;;;;;;5110327;28;20048;-73
2021/05/31 16:35:06;;;;;;;4.05;2.63;;;;;;;;;;5110194;28;20419;-72
2021/05/31 16:37:32;;;;;;;5.63;3.25;;;;;;;;;;5108459;28;20051;-70
2021/05/31 16:39:58;;;;;;;7.35;4.18;;;;;;;;;;5110335;28;20073;-70
2021/05/31 16:43:05;;;;;;;7.07;3.80;;;;;;;;;;5070157;28;20427;-71
2021/05/31 16:45:31;;;;;;;7.00;4.03;;;;;;;;;;5069719;28;20074;-71
2021/05/31 16:50:16;;;;;;;8.18;4.72;;;;;;;;;;5110608;27;20928;-72
2021/05/31 16:52:43;;;;;;;9.30;4.88;;;;;;;;;;5110161;28;20073;-72
2021/05/31 16:56:49;;;;;;;8.68;4.70;;;;;;;;;;5110414;27;20306;-71
2021/05/31 16:59:15;;;;;;;13.35;4.50;;;;;;;;;;5110180;28;20100;-70
2021/05/31 17:01:41;;;;;;;6.72;4.10;;;;;;;;;;5109055;28;20030;-70